Terminal Aerodrome Forecast
Issued by NWS

Home | Current Version | Previous Version | Text Only | Print | Product List | Glossary On
Versions: 1 2 3 4 5 6 7 8 9 10 11 12 13 14 15 16 17 18 19 20 21 22 23 24 25 26
000
FTAK31 PANC 161142 RRA
TAFAGK
TAF
PAGK 161142Z 1612/1712 VRB04KT P6SM VCSH FEW012 OVC050
      TEMPO 1612/1616 4SM -SN BR BKN012 OVC035
     FM162100 15005KT P6SM SCT040 BKN080=

USA.gov is the U.S. government's official web portal to all federal, state and local government web resources and services.